Jump to content


AMERICAN AIRLINES FLIGHT AA2187 FLOWN ON 08-03-2017 BY CAPTAIN JIM BOERMAN

Pilot StatsCaptain Jim Boerman (LDP136) • 4,616.9 total hours • 1,400 total flights [View Logbook]
FLIGHT DETAILS
StatusReceived and approved on 2017-08-03 at 14:08:02
Origin AirportMiami Intl (KMIA) • Miami, Florida, United States (8 feet MSL)
Filed Flight PlanKMIA JURER A509 URSUS UL780 PIGBO UL341 KIRAN MKJS
Destination AirportSangster Intl (MKJS) • Montego Bay, Jamaica (7 feet MSL)
Alternate AirportNorman Manley Intl (MKJP) • Kingston, Jamaica (10 feet MSL)
AirlineAmerican Airlines
AircraftBoeing 737-800 | Winglets (73H / B737-800)
FS Aircraft UsedBoeing 737-823 American N838NN Oneworld
Cruising AltitudeFL330
Distance Flown457 nautical miles
Passengers Onboard102 passengers (62.96% full)
DEPARTURE DETAILS
Time Out12:40:32
Taxi Data140,566 lbs total with 14,691 lbs of fuel onboard
Takeoff Data12:56:52 (16 minutes after leaving gate/ramp) • 139,757 lbs total • 9° pitch at 155 knots
Departure METARKMIA 031553Z 12014KT 10SM SCT026 SCT300 33/24 A3015 RMK AO2 SLP209 T03280244
ARRIVAL DETAILS
Landing Data13:16:08 • 132,227 lbs total • 3° pitch doing 130 knots at a rate of -338.34 feet/minute with 6,002 lbs of fuel onboard
Time In13:23:50 (8 minutes after landing)
Ramp Weight131,877 lbs total
Total Fuel Used8,689 lbs
Total Block Time01:43:05 (1.7 hours) while 24 minutes were spent on the ground
Arrival METARMKJS 031800Z 07021KT 9999 FEW022 FEW024CB 33/27 Q1014
MISCELLANEOUS DETAILS
LiveDISPATCH Version4.8.3.1
FS Version
FSUIPC Version5.10
OS VersionWindows 7 32-bit
Screen Resolution1920 x 1080
Pilot's CommentsNo Comments Reported
FLIGHT MAP